Time;durP1;ratioP1;P1;durP2;ratioP2;P2;SDS_P1;SDS_P2;PMS_P1;PMS_P2;Temp;Humidity;BMP_temperature;BMP_pressure;BME280_temperature;BME280_humidity;BME280_pressure;Samples;Min_cycle;Max_cycle;Signal;HPM_P1;HPM_P2
2022/05/20 00:02:06;;;;;;;44.22;33.75;;;;;;;12.03;100.00;102168.25;5099553;28;20036;-74
2022/05/20 00:04:31;;;;;;;46.78;33.65;;;;;;;11.98;100.00;102159.63;5094540;28;20518;-74
2022/05/20 00:06:57;;;;;;;44.03;33.35;;;;;;;11.94;100.00;102164.88;5094804;28;20186;-74
2022/05/20 00:09:22;;;;;;;45.10;34.13;;;;;;;11.92;100.00;102165.75;5102537;28;20122;-74
2022/05/20 00:11:47;;;;;;;45.65;32.20;;;;;;;11.95;100.00;102165.72;5111505;28;20394;-74
2022/05/20 00:14:13;;;;;;;44.95;33.35;;;;;;;11.97;100.00;102163.97;5110891;28;20494;-74
2022/05/20 00:16:38;;;;;;;45.28;34.30;;;;;;;11.94;100.00;102154.41;5105796;27;20069;-74
2022/05/20 00:19:05;;;;;;;42.50;33.78;;;;;;;11.87;100.00;102154.44;5100143;28;20455;-74
2022/05/20 00:21:32;;;;;;;43.70;33.72;;;;;;;11.88;100.00;102166.66;5103731;28;20556;-74
2022/05/20 00:23:58;;;;;;;47.33;33.95;;;;;;;11.80;100.00;102151.00;5113037;28;20019;-74
2022/05/20 00:26:24;;;;;;;43.78;33.47;;;;;;;11.80;100.00;102156.22;5112418;28;20409;-74
2022/05/20 00:28:50;;;;;;;42.72;33.30;;;;;;;11.81;100.00;102154.50;5113060;28;20018;-74
2022/05/20 00:31:16;;;;;;;43.67;33.40;;;;;;;11.81;100.00;102146.66;5114053;28;20020;-74
2022/05/20 00:33:41;;;;;;;42.40;33.47;;;;;;;11.76;100.00;102149.28;5114790;28;20063;-74
2022/05/20 00:36:07;;;;;;;42.00;32.22;;;;;;;11.71;100.00;102149.34;5113642;28;20052;-74
2022/05/20 00:38:33;;;;;;;41.13;31.58;;;;;;;11.64;100.00;102141.53;5113631;28;20058;-74
2022/05/20 00:40:59;;;;;;;45.40;34.03;;;;;;;11.63;100.00;102147.63;5111599;28;20024;-74
2022/05/20 00:43:24;;;;;;;42.60;33.65;;;;;;;11.64;100.00;102138.91;5112634;28;20023;-74
2022/05/20 00:45:50;;;;;;;44.33;33.57;;;;;;;11.64;100.00;102138.91;5113818;28;20441;-74
2022/05/20 00:48:15;;;;;;;43.03;32.42;;;;;;;11.65;100.00;102138.91;5114531;28;20076;-74
2022/05/20 00:50:46;;;;;;;40.72;32.75;;;;;;;11.64;100.00;102139.81;5108987;28;20031;-74
2022/05/20 00:53:14;;;;;;;46.10;33.83;;;;;;;11.60;100.00;102140.69;5097008;28;20055;-74
2022/05/20 00:55:42;;;;;;;44.30;33.40;;;;;;;11.57;100.00;102142.47;5106447;28;21627;-74
2022/05/20 00:58:16;;;;;;;42.22;32.65;;;;;;;11.55;100.00;102139.88;5111730;28;20031;-74
2022/05/20 01:00:47;;;;;;;53.17;37.15;;;;;;;11.53;100.00;102152.06;5112147;28;20572;-74
2022/05/20 01:03:16;;;;;;;44.92;33.92;;;;;;;11.52;100.00;102145.13;5114279;27;20027;-74
2022/05/20 01:05:47;;;;;;;47.60;34.92;;;;;;;11.52;100.00;102145.13;5113424;28;20020;-74
2022/05/20 01:08:16;;;;;;;44.38;33.08;;;;;;;11.49;100.00;102142.53;5098775;28;20399;-74
2022/05/20 01:10:41;;;;;;;42.95;32.85;;;;;;;11.40;100.00;102153.88;5101624;28;20114;-74
2022/05/20 01:13:08;;;;;;;44.53;33.60;;;;;;;11.36;100.00;102149.56;5113588;28;20122;-74
2022/05/20 01:15:34;;;;;;;42.47;31.52;;;;;;;11.32;100.00;102158.28;5112035;28;20103;-74
2022/05/20 01:17:59;;;;;;;46.72;31.58;;;;;;;11.24;100.00;102140.03;5112351;28;20114;-74
2022/05/20 01:20:28;;;;;;;41.75;31.75;;;;;;;11.23;100.00;102161.81;5110968;28;20035;-74
2022/05/20 01:22:53;;;;;;;41.97;32.50;;;;;;;11.24;100.00;102160.06;5098604;28;20019;-74
2022/05/20 01:25:19;;;;;;;43.40;32.07;;;;;;;11.25;100.00;102151.38;5111906;28;20110;-74
2022/05/20 01:27:44;;;;;;;43.55;32.22;;;;;;;11.23;100.00;102147.91;5113067;28;20629;-74
2022/05/20 01:30:13;;;;;;;42.35;31.50;;;;;;;11.25;100.00;102143.53;5113794;28;20041;-74
2022/05/20 01:32:39;;;;;;;43.55;31.65;;;;;;;11.30;100.00;102133.94;5113356;28;20031;-74
2022/05/20 01:35:08;;;;;;;40.47;30.70;;;;;;;11.23;100.00;102134.84;5102401;28;20467;-74
2022/05/20 01:37:33;;;;;;;45.30;32.00;;;;;;;11.26;100.00;102137.44;5112490;28;20020;-74
2022/05/20 01:39:59;;;;;;;43.10;31.63;;;;;;;11.25;100.00;102130.50;5113177;28;20042;-74
2022/05/20 01:42:36;;;;;;;39.33;30.90;;;;;;;11.27;100.00;102127.84;5113449;28;20470;-74
2022/05/20 01:45:01;;;;;;;38.90;30.85;;;;;;;11.28;100.00;102124.34;5113699;28;20031;-74
2022/05/20 01:47:53;;;;;;;40.63;31.23;;;;;;;11.23;100.00;102130.47;5111139;28;20020;-74
2022/05/20 01:50:21;;;;;;;44.08;32.08;;;;;;;11.25;100.00;102110.47;5090446;28;20301;-74
2022/05/20 01:52:56;;;;;;;45.25;33.03;;;;;;;11.29;100.00;102108.72;5112899;28;20545;-74
2022/05/20 01:55:34;;;;;;;47.30;33.25;;;;;;;11.28;100.00;102119.13;5105033;28;20040;-74
2022/05/20 01:58:11;;;;;;;42.22;32.38;;;;;;;11.28;100.00;102114.81;5113782;28;20487;-74
2022/05/20 02:00:39;;;;;;;45.97;32.67;;;;;;;11.27;100.00;102112.19;5113296;28;20069;-74
2022/05/20 02:03:29;;;;;;;44.10;32.45;;;;;;;11.21;100.00;102116.56;5109964;28;20065;-74
2022/05/20 02:06:30;;;;;;;41.65;31.58;;;;;;;11.19;100.00;102102.66;5110947;28;20096;-74
2022/05/20 02:09:00;;;;;;;45.08;32.17;;;;;;;11.17;100.00;102104.41;5098343;28;20092;-74
2022/05/20 02:11:39;;;;;;;42.72;30.80;;;;;;;11.14;100.00;102106.19;5111781;28;20512;-74
2022/05/20 02:14:24;;;;;;;38.90;30.85;;;;;;;11.08;100.00;102098.38;5096379;28;20526;-74
2022/05/20 02:16:55;;;;;;;43.83;32.80;;;;;;;11.04;100.00;102107.09;5109385;28;20031;-74
2022/05/20 02:19:28;;;;;;;44.42;32.08;;;;;;;10.97;100.00;102109.75;5100780;28;20035;-74
2022/05/20 02:21:58;;;;;;;46.28;32.83;;;;;;;10.90;100.00;102113.25;5107048;28;20032;-74
2022/05/20 02:24:28;;;;;;;45.33;32.65;;;;;;;10.87;100.00;102107.19;5107556;28;20085;-74
2022/05/20 02:26:59;;;;;;;47.88;32.42;;;;;;;10.86;100.00;102106.31;5107496;28;20441;-74
2022/05/20 02:29:47;;;;;;;44.13;32.85;;;;;;;10.90;100.00;102105.44;5091873;28;20023;-74
2022/05/20 02:32:12;;;;;;;41.60;31.88;;;;;;;10.90;100.00;102096.75;5111253;28;20046;-74
2022/05/20 02:34:37;;;;;;;45.73;34.43;;;;;;;10.89;100.00;102098.50;5112480;28;20024;-74
2022/05/20 02:37:21;;;;;;;44.92;32.55;;;;;;;10.90;100.00;102105.44;5110754;28;20293;-74
2022/05/20 02:39:47;;;;;;;43.33;32.15;;;;;;;10.90;100.00;102107.19;5112563;28;20024;-74
2022/05/20 02:42:12;;;;;;;43.75;31.92;;;;;;;10.88;100.00;102112.38;5111683;28;20463;-74
2022/05/20 02:44:37;;;;;;;44.20;33.20;;;;;;;10.88;100.00;102109.78;5111637;28;20024;-74
2022/05/20 02:47:03;;;;;;;47.33;33.97;;;;;;;10.89;100.00;102101.09;5112615;28;20020;-74
2022/05/20 02:49:29;;;;;;;42.28;31.73;;;;;;;10.87;100.00;102100.22;5108675;28;20027;-74
2022/05/20 02:51:54;;;;;;;44.75;31.83;;;;;;;10.83;100.00;102101.13;5097906;28;20038;-74
2022/05/20 02:54:19;;;;;;;47.17;34.60;;;;;;;10.75;100.00;102098.53;5102056;28;20023;-74
2022/05/20 02:56:45;;;;;;;44.50;32.08;;;;;;;10.65;100.00;102101.19;5111589;28;20015;-74
2022/05/20 03:04:39;;;;;;;;;;;;;;;10.72;100.00;102101.16;5091827;28;20069;-74
2022/05/20 03:07:05;;;;;;;46.95;33.55;;;;;;;10.70;100.00;102089.00;5092551;28;19957;-74
2022/05/20 03:09:30;;;;;;;48.60;33.55;;;;;;;10.67;100.00;102083.81;5091783;28;20020;-74
2022/05/20 03:11:55;;;;;;;49.00;35.15;;;;;;;10.69;100.00;102079.44;5096656;28;20372;-74
2022/05/20 03:14:22;;;;;;;43.80;32.97;;;;;;;10.69;100.00;102082.94;5098142;28;20028;-74
2022/05/20 03:16:49;;;;;;;48.80;33.10;;;;;;;10.69;100.00;102087.25;5091526;28;20887;-73
2022/05/20 03:19:15;;;;;;;50.85;35.67;;;;;;;10.69;100.00;102090.75;5091177;28;20024;-73
2022/05/20 03:21:42;;;;;;;49.00;34.75;;;;;;;10.72;100.00;102098.53;5091589;28;20040;-74
2022/05/20 03:24:08;;;;;;;47.80;34.30;;;;;;;10.76;100.00;102095.06;5108589;28;20032;-73
2022/05/20 03:26:34;;;;;;;53.85;36.58;;;;;;;10.76;100.00;102087.25;5113927;28;20456;-74
2022/05/20 03:29:02;;;;;;;47.55;34.05;;;;;;;10.81;100.00;102088.94;5116335;28;20096;-74
2022/05/20 03:31:28;;;;;;;50.17;34.58;;;;;;;10.80;100.00;102085.47;5114811;28;20469;-74
2022/05/20 03:33:54;;;;;;;45.58;33.55;;;;;;;10.80;100.00;102088.09;5113788;28;20482;-73
2022/05/20 03:36:19;;;;;;;52.38;34.83;;;;;;;10.77;100.00;102085.50;5097458;28;20028;-74
2022/05/20 03:38:45;;;;;;;49.97;35.00;;;;;;;10.73;100.00;102073.34;5116006;28;20022;-74
2022/05/20 03:41:10;;;;;;;49.17;35.80;;;;;;;10.72;100.00;102077.66;5115185;28;20558;-74
2022/05/20 03:43:37;;;;;;;52.35;36.08;;;;;;;10.78;100.00;102089.81;5116015;28;20023;-74
2022/05/20 03:46:03;;;;;;;54.10;37.17;;;;;;;10.91;100.00;102081.06;5116299;28;20049;-74
2022/05/20 03:48:29;;;;;;;56.88;37.88;;;;;;;10.98;100.00;102061.03;5112010;27;20073;-74
2022/05/20 03:50:55;;;;;;;56.40;38.10;;;;;;;11.14;100.00;102069.63;5115192;28;20024;-74
2022/05/20 03:53:20;;;;;;;56.05;38.20;;;;;;;11.22;100.00;102066.09;5111022;28;20059;-74
2022/05/20 03:55:45;;;;;;;59.65;38.95;;;;;;;11.28;100.00;102056.47;5115137;28;20115;-74
2022/05/20 03:58:11;;;;;;;57.78;40.03;;;;;;;11.29;100.00;102063.47;5115621;28;20068;-74
2022/05/20 04:01:56;;;;;;;56.55;39.72;;;;;;;11.33;100.00;102059.94;5114788;28;20019;-74
2022/05/20 04:03:23;;;;;;;54.40;38.60;;;;;;;11.28;100.00;102046.94;5107063;28;20169;-74
2022/05/20 04:05:49;;;;;;;57.75;39.05;;;;;;;11.26;100.00;102048.69;5114320;28;20055;-73
2022/05/20 04:08:14;;;;;;;61.72;40.15;;;;;;;11.25;100.00;102050.44;5114705;28;20042;-74
2022/05/20 04:10:40;;;;;;;58.03;38.65;;;;;;;11.21;100.00;102053.06;5115318;28;20439;-74
2022/05/20 04:13:06;;;;;;;59.75;39.45;;;;;;;11.18;100.00;102042.63;5113743;28;20039;-74
2022/05/20 04:15:31;;;;;;;62.00;43.00;;;;;;;11.21;100.00;102040.00;5113535;28;20027;-74
2022/05/20 04:17:56;;;;;;;61.78;41.95;;;;;;;11.23;100.00;102033.03;5115621;28;20513;-74
2022/05/20 04:20:22;;;;;;;65.63;42.25;;;;;;;11.22;100.00;102034.78;5105967;28;20028;-74
2022/05/20 04:22:47;;;;;;;66.55;42.97;;;;;;;11.30;100.00;102037.31;5101280;28;20080;-74
2022/05/20 04:25:12;;;;;;;71.85;45.90;;;;;;;11.37;100.00;102040.75;5104698;28;20040;-74
2022/05/20 04:27:39;;;;;;;78.15;51.25;;;;;;;11.46;100.00;102043.31;5114831;28;20040;-74
2022/05/20 04:30:04;;;;;;;75.40;50.17;;;;;;;11.56;100.00;102031.03;5114617;28;20076;-74
2022/05/20 04:32:30;;;;;;;80.78;50.95;;;;;;;11.61;100.00;102034.50;5114935;28;20039;-74
2022/05/20 04:34:55;;;;;;;76.45;48.85;;;;;;;11.62;100.00;102031.84;5113471;28;20019;-74
2022/05/20 04:37:23;;;;;;;79.55;50.38;;;;;;;11.62;100.00;102024.00;5113162;27;20020;-74
2022/05/20 04:39:48;;;;;;;78.45;50.72;;;;;;;11.71;100.00;102031.78;5097807;27;20016;-74
2022/05/20 04:47:41;;;;;;;;;;;;;;;11.75;100.00;102027.38;5094809;28;20089;-74
2022/05/20 04:50:08;;;;;;;77.60;48.90;;;;;;;11.84;100.00;102043.00;5105491;28;19919;-74
2022/05/20 04:52:34;;;;;;;76.82;48.90;;;;;;;11.92;100.00;102058.59;5113767;28;20803;-74
2022/05/20 04:54:59;;;;;;;83.13;49.40;;;;;;;11.99;100.00;102060.28;5107213;28;20024;-74
2022/05/20 04:57:27;;;;;;;80.32;50.97;;;;;;;12.10;100.00;102060.19;5093038;28;20039;-74
2022/05/20 04:59:56;;;;;;;76.55;49.70;;;;;;;12.26;100.00;102060.84;5094092;28;20395;-74
2022/05/20 05:02:21;;;;;;;82.35;50.95;;;;;;;12.44;100.00;102057.19;5093877;28;20032;-74
2022/05/20 05:04:47;;;;;;;77.43;47.60;;;;;;;12.64;100.00;102061.28;5113554;28;20084;-74
2022/05/20 05:07:12;;;;;;;75.65;47.85;;;;;;;12.78;100.00;102061.09;5114157;28;20391;-74
2022/05/20 05:09:39;;;;;;;68.38;45.17;;;;;;;12.89;100.00;102053.97;5111306;28;20097;-74
2022/05/20 05:12:05;;;;;;;66.95;44.65;;;;;;;13.00;100.00;102055.56;5097899;28;20032;-74
2022/05/20 05:14:36;;;;;;;64.35;44.15;;;;;;;13.06;100.00;102055.50;5092973;28;20035;-73
2022/05/20 05:17:04;;;;;;;66.72;44.53;;;;;;;13.12;100.00;102060.66;5105623;28;20142;-74
2022/05/20 05:19:30;;;;;;;67.15;46.55;;;;;;;13.20;100.00;102058.75;5111121;28;20110;-74
2022/05/20 05:21:55;;;;;;;64.18;45.88;;;;;;;13.25;100.00;102057.00;5112670;28;20110;-74
2022/05/20 05:24:20;;;;;;;66.53;44.80;;;;;;;13.26;100.00;102048.22;5113918;28;20031;-74
2022/05/20 05:26:46;;;;;;;62.40;43.35;;;;;;;13.30;100.00;102057.75;5113168;28;20016;-74
2022/05/20 05:29:11;;;;;;;61.83;45.33;;;;;;;13.32;100.00;102058.63;5111354;28;20042;-74
2022/05/20 05:31:37;;;;;;;62.13;44.30;;;;;;;13.37;100.00;102060.28;5113695;28;20502;-74
2022/05/20 05:34:03;;;;;;;66.05;46.15;;;;;;;13.35;100.00;102058.56;5110198;28;20107;-74
2022/05/20 05:36:29;;;;;;;61.80;45.33;;;;;;;13.29;100.00;102037.72;5100943;28;20028;-74
2022/05/20 05:38:54;;;;;;;60.35;45.05;;;;;;;13.20;100.00;102031.72;5113173;28;20015;-74
2022/05/20 05:41:20;;;;;;;65.53;44.83;;;;;;;13.12;100.00;102022.22;5111811;28;20023;-74
2022/05/20 05:43:46;;;;;;;59.90;44.22;;;;;;;13.17;100.00;102021.28;5098418;28;20028;-74
2022/05/20 05:46:11;;;;;;;62.33;43.22;;;;;;;13.32;100.00;102016.72;5109759;28;20576;-74
2022/05/20 05:48:36;;;;;;;61.83;42.45;;;;;;;13.54;100.00;102025.09;5113264;28;20031;-74
2022/05/20 05:51:02;;;;;;;57.28;38.35;;;;;;;13.73;100.00;102033.50;5108943;28;20117;-74
2022/05/20 05:53:27;;;;;;;53.75;38.03;;;;;;;13.91;100.00;102020.94;5092026;28;20055;-74
2022/05/20 05:55:58;;;;;;;53.63;36.17;;;;;;;14.05;100.00;102011.06;5102785;28;20467;-74
2022/05/20 05:58:25;;;;;;;47.63;34.78;;;;;;;14.16;100.00;102027.47;5109602;28;20024;-74
2022/05/20 06:00:51;;;;;;;44.42;32.47;;;;;;;14.23;100.00;102023.81;5109431;28;20027;-74
2022/05/20 06:03:16;;;;;;;41.75;31.13;;;;;;;14.18;99.84;102025.66;5113022;28;20471;-74
2022/05/20 06:05:43;;;;;;;44.90;30.30;;;;;;;14.04;100.00;102014.56;5113315;28;20038;-74
2022/05/20 06:08:08;;;;;;;39.95;29.30;;;;;;;13.88;100.00;102019.25;5112749;28;20023;-74
2022/05/20 06:10:34;;;;;;;37.40;28.80;;;;;;;13.85;100.00;102013.19;5111953;28;20028;-74
2022/05/20 06:13:00;;;;;;;40.78;28.40;;;;;;;13.87;100.00;102016.66;5106640;28;20027;-73
2022/05/20 06:15:26;;;;;;;37.10;27.52;;;;;;;13.94;100.00;102020.91;5106495;28;20114;-73
2022/05/20 06:17:52;;;;;;;38.45;28.02;;;;;;;13.98;100.00;102019.94;5111002;28;20020;-74
2022/05/20 06:20:20;;;;;;;32.33;25.52;;;;;;;14.01;99.95;102009.41;5112721;28;20491;-74
2022/05/20 06:22:45;;;;;;;37.53;25.40;;;;;;;14.09;100.00;102009.22;5098516;28;20054;-73
2022/05/20 06:25:11;;;;;;;36.35;26.60;;;;;;;14.12;100.00;102014.41;5110590;28;20412;-74
2022/05/20 06:27:37;;;;;;;31.35;22.67;;;;;;;14.15;98.46;102009.97;5101616;28;20028;-73
2022/05/20 06:30:06;;;;;;;29.70;20.75;;;;;;;14.10;96.11;102022.34;5111405;28;20038;-73
2022/05/20 06:32:32;;;;;;;29.58;19.88;;;;;;;14.12;95.48;102019.66;5112119;28;20084;-73
2022/05/20 06:40:25;;;;;;;23.73;17.52;;;;;;;14.73;92.71;101982.53;5111200;28;20050;-73
2022/05/20 06:42:50;;;;;;;21.35;16.42;;;;;;;14.75;89.81;101987.78;5111634;28;20036;-73
2022/05/20 06:45:17;;;;;;;20.42;15.05;;;;;;;14.78;90.48;101982.47;5110105;28;20454;-73
2022/05/20 06:47:42;;;;;;;21.05;14.27;;;;;;;14.85;88.26;101981.41;5101400;28;20039;-73
2022/05/20 06:50:09;;;;;;;19.00;13.48;;;;;;;14.92;86.97;101977.75;5108920;28;20035;-73
2022/05/20 06:52:34;;;;;;;16.38;12.98;;;;;;;15.06;87.17;101980.03;5107061;28;20558;-74
2022/05/20 06:54:59;;;;;;;19.67;12.75;;;;;;;15.16;87.56;101985.94;5100001;28;20021;-74
2022/05/20 06:57:25;;;;;;;16.17;12.25;;;;;;;15.11;87.77;101979.94;5093059;28;20032;-74
2022/05/20 06:59:51;;;;;;;15.80;11.00;;;;;;;15.06;86.89;101985.28;5091535;28;20028;-74
2022/05/20 07:02:17;;;;;;;17.10;11.60;;;;;;;15.01;84.50;101970.53;5091785;28;20108;-76
2022/05/20 07:04:42;;;;;;;15.93;10.98;;;;;;;15.00;86.19;101974.91;5092196;28;20082;-77
2022/05/20 07:07:07;;;;;;;21.50;12.57;;;;;;;15.06;84.46;101980.03;5092161;28;20058;-76
2022/05/20 07:09:33;;;;;;;19.73;13.13;;;;;;;15.21;86.05;101966.53;5091476;28;20498;-76
2022/05/20 07:11:59;;;;;;;17.45;12.00;;;;;;;15.44;85.59;101958.06;5100530;28;20500;-77
2022/05/20 07:14:24;;;;;;;16.20;12.57;;;;;;;15.74;85.06;101949.44;5111171;28;20544;-76
2022/05/20 07:16:50;;;;;;;13.93;11.88;;;;;;;16.03;84.67;101952.13;5106660;28;20036;-76
2022/05/20 07:19:16;;;;;;;15.65;12.45;;;;;;;16.14;82.57;101943.91;5091107;28;20020;-77
2022/05/20 07:21:41;;;;;;;14.35;11.05;;;;;;;16.19;83.00;101943.78;5094930;28;20414;-77
2022/05/20 07:24:07;;;;;;;13.90;10.25;;;;;;;16.31;79.92;101939.00;5098401;28;20097;-77
2022/05/20 07:26:33;;;;;;;16.70;10.88;;;;;;;16.33;79.41;101936.34;5100192;28;20032;-76
2022/05/20 07:28:59;;;;;;;15.70;11.13;;;;;;;16.42;81.61;101936.06;5100547;28;20038;-76
2022/05/20 07:31:24;;;;;;;13.32;9.73;;;;;;;16.66;79.41;101928.31;5094992;28;20032;-75
2022/05/20 07:33:53;;;;;;;13.68;9.52;;;;;;;16.92;77.34;101925.72;5093361;28;20032;-76
2022/05/20 07:36:19;;;;;;;13.50;9.20;;;;;;;17.06;77.11;101934.03;5093147;28;20028;-76
2022/05/20 07:38:44;;;;;;;15.68;8.98;;;;;;;17.14;77.09;101939.06;5091571;28;20139;-76
2022/05/20 07:41:13;;;;;;;11.43;9.07;;;;;;;17.22;76.95;101941.44;5092860;28;20467;-76
2022/05/20 07:43:39;;;;;;;14.48;8.52;;;;;;;17.32;73.65;101930.50;5111015;28;20019;-76
2022/05/20 07:46:05;;;;;;;11.23;8.15;;;;;;;17.44;75.96;101921.34;5105838;28;20030;-76
2022/05/20 07:48:30;;;;;;;11.48;7.63;;;;;;;17.58;70.63;101912.06;5103454;28;20034;-76
2022/05/20 07:50:59;;;;;;;11.57;8.05;;;;;;;17.68;71.80;101908.19;5092439;28;20028;-76
2022/05/20 07:53:35;;;;;;;11.52;8.07;;;;;;;17.78;71.98;101896.41;5101413;28;20503;-76
2022/05/20 07:56:11;;;;;;;13.15;7.95;;;;;;;17.93;69.51;101901.13;5091859;28;20020;-76
2022/05/20 07:58:43;;;;;;;11.48;7.00;;;;;;;18.05;68.69;101904.22;5100168;28;20027;-76
2022/05/20 08:01:08;;;;;;;12.48;7.40;;;;;;;18.13;69.84;101892.47;5103002;28;20062;-76
2022/05/20 08:06:20;;;;;;;16.30;8.75;;;;;;;18.04;70.62;101882.25;5095920;28;20038;-77
2022/05/20 08:08:45;;;;;;;11.88;8.02;;;;;;;18.06;69.35;101876.94;5110166;28;20032;-76
2022/05/20 08:11:10;;;;;;;13.32;8.60;;;;;;;18.25;69.55;101877.94;5102767;28;20391;-76
2022/05/20 08:13:36;;;;;;;11.25;8.57;;;;;;;18.22;66.46;101865.72;5094300;28;20032;-77
2022/05/20 08:16:01;;;;;;;14.27;8.77;;;;;;;18.51;65.52;101886.56;5094714;28;20032;-76
2022/05/20 08:18:26;;;;;;;10.85;8.38;;;;;;;18.71;65.12;101886.66;5103762;28;20015;-76
2022/05/20 08:20:52;;;;;;;12.07;8.88;;;;;;;19.00;65.72;101881.94;5111200;28;20413;-77
2022/05/20 08:23:17;;;;;;;10.07;8.73;;;;;;;19.13;63.71;101870.81;5101805;28;20034;-77
2022/05/20 08:25:43;;;;;;;15.40;9.65;;;;;;;19.25;64.53;101864.13;5097309;28;20080;-76
2022/05/20 08:28:08;;;;;;;12.15;8.75;;;;;;;19.46;63.80;101864.97;5107460;28;20030;-76
2022/05/20 08:30:33;;;;;;;11.05;9.52;;;;;;;19.60;62.67;101854.63;5114631;28;20474;-77
2022/05/20 08:32:58;;;;;;;13.07;9.63;;;;;;;19.70;63.53;101854.25;5114992;28;20032;-77
2022/05/20 08:35:26;;;;;;;11.38;9.52;;;;;;;19.73;65.87;101854.13;5112733;28;20031;-77
2022/05/20 08:37:52;;;;;;;12.68;10.50;;;;;;;19.64;62.14;101855.38;5104626;28;20016;-77
2022/05/20 08:40:41;;;;;;;13.35;10.35;;;;;;;19.70;65.22;101851.59;5114302;28;20043;-77
2022/05/20 08:43:06;;;;;;;15.15;10.88;;;;;;;19.50;62.91;101834.81;5114178;28;20463;-76
2022/05/20 08:45:32;;;;;;;14.82;10.07;;;;;;;19.41;63.82;101825.50;5114375;28;20032;-77
2022/05/20 08:47:57;;;;;;;12.07;10.52;;;;;;;19.37;65.34;101816.00;5107363;28;20016;-76
2022/05/20 08:50:34;;;;;;;13.95;11.70;;;;;;;19.41;64.80;101806.13;5100374;28;20057;-76
2022/05/20 08:53:00;;;;;;;15.48;11.50;;;;;;;19.51;65.59;101806.59;5114666;28;20044;-77
2022/05/20 08:55:25;;;;;;;16.15;11.82;;;;;;;19.59;64.76;101788.59;5114627;28;20026;-77
2022/05/20 08:58:01;;;;;;;14.18;10.70;;;;;;;19.88;64.34;101798.69;5096243;27;20028;-76
2022/05/20 09:00:28;;;;;;;23.88;13.93;;;;;;;19.99;64.77;101808.75;5108816;28;20028;-76
2022/05/20 09:02:53;;;;;;;16.10;12.88;;;;;;;19.98;61.85;101816.75;5101331;28;20039;-76
2022/05/20 09:05:25;;;;;;;19.95;13.55;;;;;;;19.82;63.95;101804.28;5114212;28;20020;-76
2022/05/20 09:08:07;;;;;;;18.10;12.80;;;;;;;19.76;65.46;101799.28;5099897;28;20032;-76
2022/05/20 09:10:41;;;;;;;17.15;13.60;;;;;;;19.71;62.28;101793.31;5095106;28;20044;-76
2022/05/20 09:13:09;;;;;;;17.55;13.13;;;;;;;19.77;63.50;101797.47;5101082;28;20169;-76
2022/05/20 09:15:43;;;;;;;20.90;13.43;;;;;;;20.01;59.93;101783.09;5112398;28;20501;-76
2022/05/20 09:18:30;;;;;;;19.50;14.40;;;;;;;20.20;62.83;101776.88;5110407;28;20165;-76
2022/05/20 09:20:56;;;;;;;16.70;13.88;;;;;;;20.36;61.53;101769.91;5093788;28;20028;-77
2022/05/20 09:23:24;;;;;;;19.33;13.20;;;;;;;20.49;60.25;101762.22;5094944;28;20499;-76
2022/05/20 09:26:04;;;;;;;17.58;13.65;;;;;;;20.97;60.41;101758.00;5092870;28;20024;-77
2022/05/20 09:28:58;;;;;;;17.92;13.68;;;;;;;21.04;61.03;101746.13;5101845;28;20122;-77
2022/05/20 09:31:42;;;;;;;19.45;14.27;;;;;;;21.15;61.13;101743.75;5104796;28;20027;-76
2022/05/20 09:34:20;;;;;;;17.00;14.05;;;;;;;21.33;61.58;101733.97;5104289;28;20054;-77
2022/05/20 09:36:45;;;;;;;20.05;15.30;;;;;;;21.40;59.69;101731.88;5096218;28;20031;-77
2022/05/20 09:39:25;;;;;;;21.93;14.60;;;;;;;21.75;60.59;101721.94;5110001;28;20360;-76
2022/05/20 09:41:54;;;;;;;19.90;15.07;;;;;;;22.09;59.97;101723.50;5093062;28;20038;-77
2022/05/20 09:44:24;;;;;;;21.55;16.17;;;;;;;22.35;58.92;101708.75;5106343;28;20175;-77
2022/05/20 09:46:58;;;;;;;20.20;15.65;;;;;;;22.63;58.16;101705.31;5101734;28;20030;-77
2022/05/20 09:49:44;;;;;;;20.42;15.30;;;;;;;22.89;59.02;101689.56;5113595;28;20024;-77
2022/05/20 09:52:31;;;;;;;21.58;16.42;;;;;;;23.00;58.20;101673.81;5103443;28;20097;-77
2022/05/20 09:55:01;;;;;;;22.75;16.83;;;;;;;23.04;56.56;101688.63;5112400;28;20036;-76
2022/05/20 09:57:40;;;;;;;36.20;17.25;;;;;;;23.17;55.95;101671.91;5103140;28;20019;-77
2022/05/20 10:00:32;;;;;;;33.92;18.40;;;;;;;23.30;57.17;101648.88;5102847;28;20026;-77
2022/05/20 10:03:29;;;;;;;24.70;15.50;;;;;;;23.34;55.21;101637.09;5101416;27;20581;-77
2022/05/20 10:06:04;;;;;;;25.05;15.35;;;;;;;23.36;54.96;101637.84;5103679;28;20043;-78
2022/05/20 10:08:46;;;;;;;27.15;15.82;;;;;;;23.48;57.82;101630.84;5107595;27;20039;-76
2022/05/20 10:11:25;;;;;;;21.27;15.45;;;;;;;23.58;55.71;101616.88;5111496;28;20024;-77
2022/05/20 10:14:15;;;;;;;20.63;15.60;;;;;;;23.49;55.51;101620.13;5107579;28;20036;-77
2022/05/20 10:17:02;;;;;;;21.60;15.50;;;;;;;23.34;56.06;101611.31;5109547;28;20031;-77
2022/05/20 10:19:50;;;;;;;22.67;16.23;;;;;;;23.21;55.27;101614.88;5102877;28;20116;-76
2022/05/20 10:22:33;;;;;;;22.25;15.70;;;;;;;23.21;57.03;101606.91;5105037;28;20039;-76
2022/05/20 10:25:08;;;;;;;17.38;15.45;;;;;;;23.21;55.67;101581.16;5112195;28;20387;-76
2022/05/20 10:27:44;;;;;;;21.65;15.57;;;;;;;23.13;54.52;101586.13;5104401;28;20776;-77
2022/05/20 10:33:14;;;;;;;19.08;14.20;;;;;;;23.13;56.59;101575.50;5092333;28;20085;-77
2022/05/20 10:35:54;;;;;;;43.80;18.20;;;;;;;23.19;57.42;101571.59;5091781;28;20028;-77
2022/05/20 10:38:48;;;;;;;24.35;16.42;;;;;;;23.22;55.75;101566.06;5092653;28;20077;-77
2022/05/20 10:41:47;;;;;;;19.63;14.13;;;;;;;22.85;56.53;101547.97;5092322;28;20024;-77
2022/05/20 10:50:28;;;;;;;23.00;14.82;;;;;;;22.52;56.79;101500.47;5091676;28;20119;-76
2022/05/20 10:53:19;;;;;;;21.05;14.50;;;;;;;22.35;57.27;101490.91;5098642;28;20510;-76
2022/05/20 10:56:21;;;;;;;17.60;13.90;;;;;;;22.35;58.26;101484.75;5101123;28;20589;-77
2022/05/20 10:59:30;;;;;;;17.35;13.48;;;;;;;22.29;57.59;101470.06;5106507;28;20048;-77
2022/05/20 11:02:35;;;;;;;20.23;13.85;;;;;;;22.28;57.64;101451.56;5094620;28;20483;-76
2022/05/20 11:05:06;;;;;;;20.52;14.30;;;;;;;22.32;55.71;101443.31;5091842;28;20115;-76
2022/05/20 11:07:50;;;;;;;18.98;14.27;;;;;;;22.43;58.00;101427.56;5093755;28;20028;-76
2022/05/20 11:10:38;;;;;;;20.77;14.63;;;;;;;22.68;56.70;101418.81;5111207;28;20459;-77
2022/05/20 11:13:30;;;;;;;18.55;14.82;;;;;;;23.06;58.01;101404.00;5094675;28;20059;-77
2022/05/20 11:16:14;;;;;;;19.65;15.43;;;;;;;23.16;56.72;101397.09;5076007;28;20483;-77
2022/05/20 11:19:05;;;;;;;20.63;15.50;;;;;;;23.28;58.26;101400.72;5103621;28;20039;-77
2022/05/20 11:21:47;;;;;;;20.05;15.80;;;;;;;23.27;56.73;101394.56;5106813;28;20487;-77
2022/05/20 11:24:43;;;;;;;19.95;16.23;;;;;;;23.27;57.68;101388.38;5108804;28;20035;-77
2022/05/20 11:27:45;;;;;;;24.05;17.00;;;;;;;23.07;58.65;101392.41;5096108;28;20449;-77
2022/05/20 11:30:28;;;;;;;72.20;21.98;;;;;;;22.82;58.38;101385.16;5112018;28;20028;-77
2022/05/20 11:33:06;;;;;;;27.05;20.00;;;;;;;22.47;59.18;101377.72;5111136;28;20092;-77
2022/05/20 11:35:50;;;;;;;25.25;19.90;;;;;;;22.09;60.65;101391.63;5106037;28;20427;-77
2022/05/20 11:38:33;;;;;;;30.17;21.15;;;;;;;21.73;61.49;101385.00;5103484;28;20016;-77
2022/05/20 11:41:25;;;;;;;29.08;21.75;;;;;;;21.40;63.49;101376.44;5099233;28;20114;-76
2022/05/20 11:44:27;;;;;;;89.45;30.02;;;;;;;21.26;64.13;101375.44;5106346;28;20089;-76
2022/05/20 11:47:05;;;;;;;63.95;29.13;;;;;;;20.92;66.11;101373.06;5096673;28;20038;-76
2022/05/20 11:49:39;;;;;;;32.72;24.83;;;;;;;20.67;66.42;101360.41;5101961;28;20033;-76
2022/05/20 11:52:34;;;;;;;38.50;26.08;;;;;;;20.40;68.58;101339.81;5114829;28;20047;-76